Genegantslet, NY

2:04 AM EDT on June 02, 2015 (GMT -0400)
Greene Airport | | Change Station
CLOSE
Current Station
Personal Weather Station
Location: Greene, NY
Elevation: 935 ft
Nearby Weather Stations

Elev 935 ft 42.30 °N, 75.78 °W | Updated 1 second ago

Overcast
Overcast
52.6 °F
Feels Like 52.6 °F
N
8.0
Wind Variable Wind from South
Gusts 8.0 mph

Today
High -- | Low -- °F
--% Chance of Precip.
Yesterday
High -- | Low -- °F
Precip. -- in
5:28 AM 8:33 PM
Full, 100% visible
Pressure 30.11 in
Visibility 0.2 miles
Clouds
Dew Point 50 °F
Humidity 91%
Rainfall 0.00 in
Snow Depth Not available.
UV Not available.
Pollen 1.00 out of 12
Air Quality Not available.
Flu Activity Sporadic
METAR KBGM 020553Z AUTO 29004KT 1/4SM FG VV002 11/11 A3011 RMK AO2 SLP196 60002 T01060106 10111 20106 58007 RVRNO

More Conditions Fewer Conditions

Pressure 30.11 in
Visibility 0.2 miles
Clouds
Dew Point 50 °F
Humidity 91%
Rainfall 0.00 in
Snow Depth Not available.
UV Not available.
Pollen 1.00 out of 12
Air Quality Not available.
Flu Activity Sporadic
METAR KBGM 020553Z AUTO 29004KT 1/4SM FG VV002 11/11 A3011 RMK AO2 SLP196 60002 T01060106 10111 20106 58007 RVRNO

More Conditions Fewer Conditions

10-Day Weather Forecast

Almanac

Astronomy

Jun. 02, 2015 Rise Set
Actual Time
Civil Twilight
Nautical Twilight
Astronomical Twilight
Moon
Length of Visible Light
Length of Day
Tomorrow will be .
, % of the Moon is Illuminated

Today's Extremes

State Highs State Lows

Community

WunderPhotos

Upload Photos

1,825,922 photos uploaded!

WunderBlogs® & News

Nearby

Air Quality

  Air Quality AQ Index Pollutant
Not available.

Snow Depth

Station Depth Elevation

Earthquake Activity

City Distance Mag. Time & Date
Minimum magnitude displayed is 2.5.

Coastal Water Temperatures

Place Temperature

Stations

Nearby Weather Stations

Station Location Temp. Windchill Dew Point Humidity Wind Precip. Elev Updated Type